createdAt,value
2023-04-02T00:00:19.289Z,98400.81
2023-04-02T00:05:52.332Z,98408.56
2023-04-02T00:10:58.029Z,98414.66
2023-04-02T00:16:03.524Z,98421.47
2023-04-02T00:21:15.267Z,98424.06
2023-04-02T00:26:30.653Z,98417.91
2023-04-02T00:31:35.495Z,98411.03
2023-04-02T00:36:42.050Z,98419.53
2023-04-02T00:41:48.007Z,98420.56
2023-04-02T00:46:52.549Z,98429.97
2023-04-02T00:52:00.467Z,98435.97
2023-04-02T00:57:04.295Z,98438.56
2023-04-02T01:02:26.717Z,98453.22
2023-04-02T01:07:49.032Z,98444.56
2023-04-02T01:13:04.637Z,98447.13
2023-04-02T01:18:31.492Z,98455.75
2023-04-02T01:23:44.648Z,98447.97
2023-04-02T01:29:03.017Z,98450.56
2023-04-02T01:34:10.637Z,98447.25
2023-04-02T01:39:27.979Z,98443.72
2023-04-02T01:44:38.162Z,98444.53
2023-04-02T01:49:43.615Z,98446.34
2023-04-02T01:54:48.782Z,98448.00
2023-04-02T01:59:53.647Z,98452.28
2023-04-02T02:04:56.981Z,98449.69
2023-04-02T02:10:00.544Z,98451.41
2023-04-02T02:15:06.650Z,98452.19
2023-04-02T02:20:11.409Z,98451.34
2023-04-02T02:25:19.798Z,98445.34
2023-04-02T02:30:28.480Z,98444.41
2023-04-02T02:35:38.946Z,98446.16
2023-04-02T02:40:46.664Z,98451.31
2023-04-02T02:45:54.438Z,98459.97
2023-04-02T02:50:59.126Z,98450.53
2023-04-02T02:56:04.043Z,98453.88
2023-04-02T03:01:08.926Z,98459.94
2023-04-02T03:06:17.290Z,98453.09
2023-04-02T03:11:28.331Z,98458.25
2023-04-02T03:16:39.939Z,98468.63
2023-04-02T03:21:50.249Z,98464.28
2023-04-02T03:26:58.629Z,98465.16
2023-04-02T03:32:09.212Z,98465.16
2023-04-02T03:37:16.868Z,98473.66
2023-04-02T03:42:23.234Z,98472.81
2023-04-02T03:47:35.730Z,98474.59
2023-04-02T03:52:40.138Z,98447.13
2023-04-02T03:57:48.880Z,98485.81
2023-04-02T04:02:57.789Z,98474.63
2023-04-02T04:08:04.796Z,98481.44
2023-04-02T04:13:14.161Z,98471.88
2023-04-02T04:18:25.426Z,98469.97
2023-04-02T04:23:31.768Z,98474.28
2023-04-02T04:28:41.848Z,98481.94
2023-04-02T04:33:51.225Z,98478.38
2023-04-02T04:39:02.259Z,98481.97
2023-04-02T04:44:14.337Z,98483.66
2023-04-02T04:49:22.131Z,98489.69
2023-04-02T04:54:28.100Z,98506.19
2023-04-02T04:59:35.039Z,98504.50
2023-04-02T05:04:42.189Z,98505.38
2023-04-02T05:09:53.358Z,98508.91
2023-04-02T05:15:01.820Z,98501.16
2023-04-02T05:20:16.593Z,98501.91
2023-04-02T05:25:24.758Z,98509.56
2023-04-02T05:30:49.519Z,98502.69
2023-04-02T05:35:59.245Z,98516.53
2023-04-02T05:41:05.429Z,98513.00
2023-04-02T05:46:17.769Z,98508.66
2023-04-02T05:51:27.590Z,98507.06
2023-04-02T05:56:36.106Z,98527.81
2023-04-02T06:01:45.711Z,98528.69
2023-04-02T06:06:58.631Z,98538.03
2023-04-02T06:12:14.792Z,98525.84
2023-04-02T06:17:20.510Z,98524.97
2023-04-02T06:22:34.456Z,98533.59
2023-04-02T06:27:41.244Z,98539.63
2023-04-02T06:32:44.799Z,98547.34
2023-04-02T06:37:51.465Z,98532.59
2023-04-02T06:42:59.940Z,98534.88
2023-04-02T06:48:05.226Z,98533.84
2023-04-02T06:53:21.104Z,98536.25
2023-04-02T06:58:24.607Z,98544.69
2023-04-02T07:03:30.853Z,98535.28
2023-04-02T07:08:35.760Z,98546.09
2023-04-02T07:13:38.865Z,98554.47
2023-04-02T07:18:42.271Z,98561.25
2023-04-02T07:23:47.284Z,98565.50
2023-04-02T07:28:51.160Z,98564.72
2023-04-02T07:33:58.156Z,98565.72
2023-04-02T07:39:03.485Z,98582.25
2023-04-02T07:44:07.154Z,98581.34
2023-04-02T07:49:10.591Z,98580.41
2023-04-02T07:54:15.643Z,98591.16
2023-04-02T07:59:19.079Z,98579.97
2023-04-02T08:04:24.048Z,98577.19
2023-04-02T08:09:28.998Z,98583.06
2023-04-02T08:14:32.157Z,98578.75
2023-04-02T08:19:47.824Z,98584.09
2023-04-02T08:24:59.055Z,98587.25
2023-04-02T08:30:02.597Z,98576.72
2023-04-02T08:35:08.718Z,98573.22
2023-04-02T08:40:23.208Z,98580.81
2023-04-02T08:45:39.880Z,98582.81
2023-04-02T08:50:45.199Z,98587.56
2023-04-02T08:56:00.016Z,98587.56
2023-04-02T09:01:05.294Z,98579.53
2023-04-02T09:06:16.064Z,98591.38
2023-04-02T09:11:26.086Z,98586.13
2023-04-02T09:16:43.683Z,98585.22
2023-04-02T09:21:57.823Z,98592.09
2023-04-02T09:27:03.032Z,98581.47
2023-04-02T09:32:20.136Z,98588.41
2023-04-02T09:37:25.498Z,98593.56
2023-04-02T09:42:36.422Z,98598.09
2023-04-02T09:47:42.527Z,98599.25
2023-04-02T09:52:46.325Z,98597.34
2023-04-02T09:57:52.245Z,98599.88
2023-04-02T10:03:04.860Z,98607.78
2023-04-02T10:08:17.678Z,98597.13
2023-04-02T10:13:29.098Z,98584.34
2023-04-02T10:18:42.858Z,98593.34
2023-04-02T10:23:46.687Z,98593.78
2023-04-02T10:29:17.082Z,98587.69
2023-04-02T10:34:25.987Z,98590.31
2023-04-02T10:39:38.889Z,98599.50
2023-04-02T10:44:54.430Z,98597.69
2023-04-02T10:50:13.292Z,98593.59
2023-04-02T10:55:19.508Z,98572.66
2023-04-02T11:00:28.041Z,98614.44
2023-04-02T11:05:40.469Z,98598.06
2023-04-02T11:10:49.718Z,98593.13
2023-04-02T11:15:55.192Z,98597.84
2023-04-02T11:21:03.860Z,98592.44
2023-04-02T11:26:35.464Z,98589.56
2023-04-02T11:31:40.783Z,98602.69
2023-04-02T11:37:02.024Z,98602.13
2023-04-02T11:42:24.985Z,98607.94
2023-04-02T11:47:31.140Z,98598.94
2023-04-02T11:52:51.965Z,98598.91
2023-04-02T11:58:25.533Z,98594.09
2023-04-02T12:03:49.167Z,98596.47
2023-04-02T12:09:06.058Z,98593.84
2023-04-02T12:14:35.498Z,98591.66
2023-04-02T12:19:41.533Z,98602.75
2023-04-02T12:24:49.489Z,98603.53
2023-04-02T12:29:52.967Z,98610.88
2023-04-02T12:34:59.276Z,98612.53
2023-04-02T12:40:07.317Z,98621.16
2023-04-02T12:45:24.936Z,98625.34
2023-04-02T12:50:30.861Z,98627.84
2023-04-02T12:55:34.301Z,98623.63
2023-04-02T13:00:38.638Z,98625.41
2023-04-02T13:05:48.414Z,98627.38
2023-04-02T13:10:56.792Z,98618.63
2023-04-02T13:16:27.639Z,98615.59
2023-04-02T13:21:32.474Z,98614.53
2023-04-02T13:26:35.657Z,98617.81
2023-04-02T13:31:39.132Z,98616.16
2023-04-02T13:36:44.138Z,98619.47
2023-04-02T13:41:49.671Z,98616.16
2023-04-02T13:46:54.242Z,98611.75
2023-04-02T13:52:03.265Z,98618.50
2023-04-02T13:57:07.610Z,98617.69
2023-04-02T14:02:15.639Z,98621.69
2023-04-02T14:07:30.235Z,98626.28
2023-04-02T14:12:50.026Z,98625.16
2023-04-02T14:18:09.427Z,98628.84
2023-04-02T14:23:27.300Z,98632.97
2023-04-02T14:28:42.871Z,98626.28
2023-04-02T14:33:57.599Z,98625.47
2023-04-02T14:39:11.137Z,98621.78
2023-04-02T14:44:15.230Z,98623.56
2023-04-02T14:49:26.367Z,98615.88
2023-04-02T14:54:35.871Z,98623.66
2023-04-02T14:59:46.613Z,98620.06
2023-04-02T15:04:55.718Z,98621.00
2023-04-02T15:10:08.691Z,98617.66
2023-04-02T15:15:29.641Z,98632.53
2023-04-02T15:20:43.403Z,98616.75
2023-04-02T15:25:54.693Z,98623.31
2023-04-02T15:31:00.897Z,98629.34
2023-04-02T15:36:29.643Z,98624.84
2023-04-02T15:41:42.109Z,98632.16
2023-04-02T15:46:56.864Z,98632.13
2023-04-02T15:52:07.075Z,98639.09
2023-04-02T15:57:23.613Z,98639.09
2023-04-02T16:02:55.174Z,98653.78
2023-04-02T16:08:23.021Z,98648.81
2023-04-02T16:13:32.452Z,98658.47
2023-04-02T16:18:46.164Z,98667.31
2023-04-02T16:23:50.175Z,98677.84
2023-04-02T16:29:06.732Z,98682.28
2023-04-02T16:34:20.622Z,98688.28
2023-04-02T16:39:36.451Z,98688.59
2023-04-02T16:44:53.520Z,98700.69
2023-04-02T16:50:04.156Z,98700.84
2023-04-02T16:55:30.729Z,98696.66
2023-04-02T17:00:42.856Z,98709.00
2023-04-02T17:05:55.178Z,98713.63
2023-04-02T17:11:02.863Z,98718.06
2023-04-02T17:16:20.027Z,98719.00
2023-04-02T17:21:27.384Z,98725.84
2023-04-02T17:26:34.175Z,98718.13
2023-04-02T17:31:42.168Z,98718.13
2023-04-02T17:36:56.333Z,98717.13
2023-04-02T17:42:08.920Z,98720.50
2023-04-02T17:47:20.835Z,98719.75
2023-04-02T17:52:30.662Z,98725.03
2023-04-02T17:57:49.937Z,98725.97
2023-04-02T18:03:08.623Z,98723.38
2023-04-02T18:08:22.731Z,98737.34
2023-04-02T18:13:35.096Z,98741.56
2023-04-02T18:18:50.995Z,98736.91
2023-04-02T18:24:08.038Z,98737.56
2023-04-02T18:29:24.141Z,98747.84
2023-04-02T18:34:52.696Z,98741.66
2023-04-02T18:40:23.041Z,98749.53
2023-04-02T18:45:36.291Z,98753.03
2023-04-02T18:50:45.999Z,98760.78
2023-04-02T18:55:53.029Z,98750.28
2023-04-02T19:00:57.509Z,98759.94
2023-04-02T19:06:04.203Z,98756.66
2023-04-02T19:11:12.672Z,98758.47
2023-04-02T19:16:41.069Z,98764.66
2023-04-02T19:22:09.184Z,98762.13
2023-04-02T19:27:23.783Z,98759.56
2023-04-02T19:32:39.829Z,98765.75
2023-04-02T19:37:49.486Z,98763.91
2023-04-02T19:42:54.328Z,98768.25
2023-04-02T19:47:58.506Z,98771.59
2023-04-02T19:53:03.389Z,98763.72
2023-04-02T19:58:18.702Z,98773.19
2023-04-02T20:03:23.470Z,98769.66
2023-04-02T20:08:29.188Z,98768.66
2023-04-02T20:13:32.658Z,98763.47
2023-04-02T20:18:37.237Z,98787.75
2023-04-02T20:23:42.153Z,98786.81
2023-04-02T20:28:45.738Z,98796.31
2023-04-02T20:33:49.381Z,98801.59
2023-04-02T20:38:54.374Z,98807.59
2023-04-02T20:43:57.848Z,98800.16
2023-04-02T20:49:02.409Z,98806.38
2023-04-02T20:54:07.450Z,98802.09
2023-04-02T20:59:10.851Z,98808.41
2023-04-02T21:04:14.586Z,98807.66
2023-04-02T21:09:21.443Z,98805.09
2023-04-02T21:14:25.459Z,98806.81
2023-04-02T21:19:29.040Z,98803.41
2023-04-02T21:24:33.868Z,98813.81
2023-04-02T21:29:37.014Z,98811.97
2023-04-02T21:34:40.427Z,98806.03
2023-04-02T21:39:45.456Z,98808.59
2023-04-02T21:44:48.925Z,98806.78
2023-04-02T21:49:52.387Z,98813.63
2023-04-02T21:54:57.258Z,98813.59
2023-04-02T22:00:00.411Z,98807.41
2023-04-02T22:05:04.236Z,98810.94
2023-04-02T22:10:10.085Z,98807.41
2023-04-02T22:15:13.579Z,98795.34
2023-04-02T22:20:17.167Z,98802.19
2023-04-02T22:25:22.096Z,98814.19
2023-04-02T22:30:27.592Z,98806.53
2023-04-02T22:35:31.812Z,98812.53
2023-04-02T22:40:37.245Z,98806.44
2023-04-02T22:45:40.976Z,98794.41
2023-04-02T22:50:44.433Z,98805.53
2023-04-02T22:55:49.523Z,98811.72
2023-04-02T23:00:53.190Z,98816.09
2023-04-02T23:06:01.268Z,98809.09
2023-04-02T23:11:09.011Z,98809.91
2023-04-02T23:16:14.518Z,98818.50
2023-04-02T23:21:18.581Z,98819.34
2023-04-02T23:26:26.211Z,98807.16
2023-04-02T23:31:30.074Z,98821.84
2023-04-02T23:36:35.938Z,98821.88
2023-04-02T23:41:43.102Z,98817.63
2023-04-02T23:46:46.714Z,98819.38
2023-04-02T23:51:50.248Z,98815.22
2023-04-02T23:56:55.127Z,98813.41
